Startpagina
METAR-TAF:

METAR-TAF

Vliegvelden :

Cape Town International Airport

Kaapstad, Zuid-Afrika

breedte: 33-59S, lengte: 018-36E, hoogte: 42 m

Actueel weer

Dit bericht is 58 minuten geleden gemaakt, om 22:00 UTC
Wind 7 kt uit het zuidzuidwesten
Temperatuur 14°C
Vochtigheid 88%
Druk 1023 hPa
Zicht 10 km of meer
geen wolken onder 1500 m en geen cumulonimbus

METAR: FACT 232200Z 21007KT CAVOK 14/12 Q1023 NOSIG

Tijdstip: 00:58 (22:58 UTC)

Verwachting

Dit bericht is 4 uur en het 58 minuten geleden gemaakt, om 18:00 UTC
Verwachting geldig van 23 om 18 UTC tot 24 om 24 UTC
Wind 15 kt uit het zuiden
Zicht 10 km of meer
geen wolken onder 1500 m en geen cumulonimbus
Wijzigt naar
van 24 om 00 UTC tot 24 om 02 UTC
Wind 5 kt uit het zuiden

TAF: FACT 231800Z 2318/2424 19015KT CAVOK TX23/2412Z TN11/2405Z BECMG 2400/2402 19005KT

Waarnemingen en weersverwachtingen van meer dan 4000 vliegvelden (METAR en TAF).

De beschikbare stations zijn de gele en rode punten op de kaart.

Ga met uw muis naar het station om de naam te zien.

Klik dan om waarnemingen en weersverwachtingen te zien.

kaart wijzigen: klik op de groene knoppen met een zwart kruis om in te zoomen, op de groene knop met een streepje om uit te zoomen of op de groene pijlen voor aangrenzende kaarten.


METAR-TAF: